sensor_id;sensor_type;location;lat;lon;timestamp;temperature;humidity
3648;DHT22;1840;48.892;15.312;2023-07-13T00:00:04;18.20;97.50
3648;DHT22;1840;48.892;15.312;2023-07-13T00:02:36;18.30;97.50
3648;DHT22;1840;48.892;15.312;2023-07-13T00:05:05;18.40;97.30
3648;DHT22;1840;48.892;15.312;2023-07-13T00:07:33;18.40;97.20
3648;DHT22;1840;48.892;15.312;2023-07-13T00:10:02;18.40;97.20
3648;DHT22;1840;48.892;15.312;2023-07-13T00:12:32;18.40;97.20
3648;DHT22;1840;48.892;15.312;2023-07-13T00:15:05;18.40;97.40
3648;DHT22;1840;48.892;15.312;2023-07-13T00:17:33;18.40;97.30
3648;DHT22;1840;48.892;15.312;2023-07-13T00:20:02;18.30;97.40
3648;DHT22;1840;48.892;15.312;2023-07-13T00:22:31;18.30;97.40
3648;DHT22;1840;48.892;15.312;2023-07-13T00:24:59;18.30;97.40
3648;DHT22;1840;48.892;15.312;2023-07-13T00:27:28;18.40;97.40
3648;DHT22;1840;48.892;15.312;2023-07-13T00:29:58;18.40;97.20
3648;DHT22;1840;48.892;15.312;2023-07-13T00:32:28;18.30;97.30
3648;DHT22;1840;48.892;15.312;2023-07-13T00:34:57;18.40;97.30
3648;DHT22;1840;48.892;15.312;2023-07-13T00:37:27;18.40;97.10
3648;DHT22;1840;48.892;15.312;2023-07-13T00:39:55;18.30;97.60
3648;DHT22;1840;48.892;15.312;2023-07-13T00:42:23;18.40;97.00
3648;DHT22;1840;48.892;15.312;2023-07-13T00:45:05;18.50;97.10
3648;DHT22;1840;48.892;15.312;2023-07-13T00:47:35;18.50;97.00
3648;DHT22;1840;48.892;15.312;2023-07-13T00:50:07;18.50;97.00
3648;DHT22;1840;48.892;15.312;2023-07-13T00:52:46;18.40;96.90
3648;DHT22;1840;48.892;15.312;2023-07-13T00:55:16;18.50;96.80
3648;DHT22;1840;48.892;15.312;2023-07-13T00:57:45;18.50;96.60
3648;DHT22;1840;48.892;15.312;2023-07-13T01:00:13;18.50;96.10
3648;DHT22;1840;48.892;15.312;2023-07-13T01:02:45;18.50;96.30
3648;DHT22;1840;48.892;15.312;2023-07-13T01:05:15;18.60;95.80
3648;DHT22;1840;48.892;15.312;2023-07-13T01:07:45;18.70;95.90
3648;DHT22;1840;48.892;15.312;2023-07-13T01:10:13;18.90;95.70
3648;DHT22;1840;48.892;15.312;2023-07-13T01:12:41;19.00;95.40
3648;DHT22;1840;48.892;15.312;2023-07-13T01:15:34;19.10;95.00
3648;DHT22;1840;48.892;15.312;2023-07-13T01:18:04;19.10;95.00
3648;DHT22;1840;48.892;15.312;2023-07-13T01:20:33;19.20;94.80
3648;DHT22;1840;48.892;15.312;2023-07-13T01:23:06;19.20;94.80
3648;DHT22;1840;48.892;15.312;2023-07-13T01:25:35;19.10;94.70
3648;DHT22;1840;48.892;15.312;2023-07-13T01:28:04;19.10;94.80
3648;DHT22;1840;48.892;15.312;2023-07-13T01:30:32;19.00;95.00
3648;DHT22;1840;48.892;15.312;2023-07-13T01:33:01;18.90;95.20
3648;DHT22;1840;48.892;15.312;2023-07-13T01:35:30;18.80;95.10
3648;DHT22;1840;48.892;15.312;2023-07-13T01:37:58;18.80;95.30
3648;DHT22;1840;48.892;15.312;2023-07-13T01:40:29;18.80;95.30
3648;DHT22;1840;48.892;15.312;2023-07-13T01:42:58;18.80;95.30
3648;DHT22;1840;48.892;15.312;2023-07-13T01:45:26;18.80;95.40
3648;DHT22;1840;48.892;15.312;2023-07-13T01:47:55;18.70;95.50
3648;DHT22;1840;48.892;15.312;2023-07-13T01:50:23;18.60;95.70
3648;DHT22;1840;48.892;15.312;2023-07-13T01:52:51;18.60;95.90
3648;DHT22;1840;48.892;15.312;2023-07-13T01:55:19;18.50;96.00
3648;DHT22;1840;48.892;15.312;2023-07-13T01:57:49;18.30;96.30
3648;DHT22;1840;48.892;15.312;2023-07-13T02:00:18;18.40;96.40
3648;DHT22;1840;48.892;15.312;2023-07-13T02:02:46;18.40;96.50
3648;DHT22;1840;48.892;15.312;2023-07-13T02:05:15;18.30;96.30
3648;DHT22;1840;48.892;15.312;2023-07-13T02:07:43;18.40;96.70
3648;DHT22;1840;48.892;15.312;2023-07-13T02:10:12;18.50;96.20
3648;DHT22;1840;48.892;15.312;2023-07-13T02:12:41;18.50;95.90
3648;DHT22;1840;48.892;15.312;2023-07-13T02:15:11;18.60;95.80
3648;DHT22;1840;48.892;15.312;2023-07-13T02:17:39;18.70;95.50
3648;DHT22;1840;48.892;15.312;2023-07-13T02:20:08;18.80;95.70
3648;DHT22;1840;48.892;15.312;2023-07-13T02:22:36;18.70;95.80
3648;DHT22;1840;48.892;15.312;2023-07-13T02:25:05;18.70;95.90
3648;DHT22;1840;48.892;15.312;2023-07-13T02:27:33;18.60;96.10
3648;DHT22;1840;48.892;15.312;2023-07-13T02:30:01;18.60;96.30
3648;DHT22;1840;48.892;15.312;2023-07-13T02:32:31;18.60;96.50
3648;DHT22;1840;48.892;15.312;2023-07-13T02:34:59;18.70;96.20
3648;DHT22;1840;48.892;15.312;2023-07-13T02:37:27;18.70;96.20
3648;DHT22;1840;48.892;15.312;2023-07-13T02:39:56;18.60;96.20
3648;DHT22;1840;48.892;15.312;2023-07-13T02:42:24;18.60;96.20
3648;DHT22;1840;48.892;15.312;2023-07-13T02:44:52;18.60;96.30
3648;DHT22;1840;48.892;15.312;2023-07-13T02:47:20;18.60;96.30
3648;DHT22;1840;48.892;15.312;2023-07-13T02:49:50;18.50;96.40
3648;DHT22;1840;48.892;15.312;2023-07-13T02:52:18;18.60;96.40
3648;DHT22;1840;48.892;15.312;2023-07-13T02:54:46;18.60;96.30
3648;DHT22;1840;48.892;15.312;2023-07-13T02:57:14;18.60;96.40
3648;DHT22;1840;48.892;15.312;2023-07-13T02:59:42;18.60;96.50
3648;DHT22;1840;48.892;15.312;2023-07-13T03:02:10;18.60;96.50
3648;DHT22;1840;48.892;15.312;2023-07-13T03:04:39;18.60;96.50
3648;DHT22;1840;48.892;15.312;2023-07-13T03:07:09;18.60;96.70
3648;DHT22;1840;48.892;15.312;2023-07-13T03:09:37;18.70;96.50
3648;DHT22;1840;48.892;15.312;2023-07-13T03:12:06;18.80;96.40
3648;DHT22;1840;48.892;15.312;2023-07-13T03:14:34;18.80;96.20
3648;DHT22;1840;48.892;15.312;2023-07-13T03:17:02;18.80;96.30
3648;DHT22;1840;48.892;15.312;2023-07-13T03:19:30;18.90;96.30
3648;DHT22;1840;48.892;15.312;2023-07-13T03:21:58;18.90;96.20
3648;DHT22;1840;48.892;15.312;2023-07-13T03:24:28;18.90;96.10
3648;DHT22;1840;48.892;15.312;2023-07-13T03:26:56;18.90;96.10
3648;DHT22;1840;48.892;15.312;2023-07-13T03:29:24;18.90;96.00
3648;DHT22;1840;48.892;15.312;2023-07-13T03:31:52;18.90;96.10
3648;DHT22;1840;48.892;15.312;2023-07-13T03:34:20;19.00;96.00
3648;DHT22;1840;48.892;15.312;2023-07-13T03:36:48;19.00;95.90
3648;DHT22;1840;48.892;15.312;2023-07-13T03:39:16;19.00;96.00
3648;DHT22;1840;48.892;15.312;2023-07-13T03:41:46;18.90;96.00
3648;DHT22;1840;48.892;15.312;2023-07-13T03:44:15;18.90;96.00
3648;DHT22;1840;48.892;15.312;2023-07-13T03:46:44;19.00;95.90
3648;DHT22;1840;48.892;15.312;2023-07-13T03:49:12;19.10;95.70
3648;DHT22;1840;48.892;15.312;2023-07-13T03:51:40;19.00;95.80
3648;DHT22;1840;48.892;15.312;2023-07-13T03:54:08;19.00;95.70
3648;DHT22;1840;48.892;15.312;2023-07-13T03:56:36;19.10;95.60
3648;DHT22;1840;48.892;15.312;2023-07-13T03:59:05;19.10;95.60
3648;DHT22;1840;48.892;15.312;2023-07-13T04:01:34;19.10;95.60
3648;DHT22;1840;48.892;15.312;2023-07-13T04:04:02;19.10;95.70
3648;DHT22;1840;48.892;15.312;2023-07-13T04:06:32;19.10;95.60
3648;DHT22;1840;48.892;15.312;2023-07-13T04:09:02;19.10;95.50
3648;DHT22;1840;48.892;15.312;2023-07-13T04:11:32;19.00;95.60
3648;DHT22;1840;48.892;15.312;2023-07-13T04:14:01;19.00;95.80
3648;DHT22;1840;48.892;15.312;2023-07-13T04:16:30;19.00;95.70
3648;DHT22;1840;48.892;15.312;2023-07-13T04:18:58;19.00;95.80
3648;DHT22;1840;48.892;15.312;2023-07-13T04:21:28;19.10;95.70
3648;DHT22;1840;48.892;15.312;2023-07-13T04:23:57;19.10;95.60
3648;DHT22;1840;48.892;15.312;2023-07-13T04:26:25;19.10;95.60
3648;DHT22;1840;48.892;15.312;2023-07-13T04:28:53;19.10;95.70
3648;DHT22;1840;48.892;15.312;2023-07-13T04:31:22;19.10;95.80
3648;DHT22;1840;48.892;15.312;2023-07-13T04:33:51;19.10;95.60
3648;DHT22;1840;48.892;15.312;2023-07-13T04:36:20;19.10;95.80
3648;DHT22;1840;48.892;15.312;2023-07-13T04:38:48;19.20;95.80
3648;DHT22;1840;48.892;15.312;2023-07-13T04:41:16;19.10;95.60
3648;DHT22;1840;48.892;15.312;2023-07-13T04:43:44;19.20;95.60
3648;DHT22;1840;48.892;15.312;2023-07-13T04:46:14;19.10;95.50
3648;DHT22;1840;48.892;15.312;2023-07-13T04:48:44;19.10;95.60
3648;DHT22;1840;48.892;15.312;2023-07-13T04:51:13;19.10;95.70
3648;DHT22;1840;48.892;15.312;2023-07-13T04:53:41;19.10;95.60
3648;DHT22;1840;48.892;15.312;2023-07-13T04:56:09;19.10;95.70
3648;DHT22;1840;48.892;15.312;2023-07-13T04:58:38;19.10;95.50
3648;DHT22;1840;48.892;15.312;2023-07-13T05:01:07;19.20;95.60
3648;DHT22;1840;48.892;15.312;2023-07-13T05:03:37;19.30;95.50
3648;DHT22;1840;48.892;15.312;2023-07-13T05:06:07;19.30;95.50
3648;DHT22;1840;48.892;15.312;2023-07-13T05:08:38;19.30;95.40
3648;DHT22;1840;48.892;15.312;2023-07-13T05:11:06;19.30;95.40
3648;DHT22;1840;48.892;15.312;2023-07-13T05:13:35;19.20;95.10
3648;DHT22;1840;48.892;15.312;2023-07-13T05:16:04;19.20;95.20
3648;DHT22;1840;48.892;15.312;2023-07-13T05:18:34;19.20;95.40
3648;DHT22;1840;48.892;15.312;2023-07-13T05:21:07;19.20;95.30
3648;DHT22;1840;48.892;15.312;2023-07-13T05:23:37;19.40;95.20
3648;DHT22;1840;48.892;15.312;2023-07-13T05:26:05;19.50;95.10
3648;DHT22;1840;48.892;15.312;2023-07-13T05:28:36;19.50;95.10
3648;DHT22;1840;48.892;15.312;2023-07-13T05:31:04;19.50;94.70
3648;DHT22;1840;48.892;15.312;2023-07-13T05:33:33;19.40;94.60
3648;DHT22;1840;48.892;15.312;2023-07-13T05:36:01;19.40;94.80
3648;DHT22;1840;48.892;15.312;2023-07-13T05:38:29;19.50;94.80
3648;DHT22;1840;48.892;15.312;2023-07-13T05:40:58;19.60;94.60
3648;DHT22;1840;48.892;15.312;2023-07-13T05:43:31;19.60;94.50
3648;DHT22;1840;48.892;15.312;2023-07-13T05:45:59;19.50;94.30
3648;DHT22;1840;48.892;15.312;2023-07-13T05:48:27;19.50;94.50
3648;DHT22;1840;48.892;15.312;2023-07-13T05:50:55;19.50;94.40
3648;DHT22;1840;48.892;15.312;2023-07-13T05:53:24;19.60;94.40
3648;DHT22;1840;48.892;15.312;2023-07-13T05:55:54;19.60;94.30
3648;DHT22;1840;48.892;15.312;2023-07-13T05:58:25;19.50;94.70
3648;DHT22;1840;48.892;15.312;2023-07-13T06:00:59;19.60;94.50
3648;DHT22;1840;48.892;15.312;2023-07-13T06:03:27;19.60;94.40
3648;DHT22;1840;48.892;15.312;2023-07-13T06:05:56;19.60;94.60
3648;DHT22;1840;48.892;15.312;2023-07-13T06:08:24;19.50;94.70
3648;DHT22;1840;48.892;15.312;2023-07-13T06:10:52;19.60;94.60
3648;DHT22;1840;48.892;15.312;2023-07-13T06:13:20;19.50;94.40
3648;DHT22;1840;48.892;15.312;2023-07-13T06:15:50;19.50;94.60
3648;DHT22;1840;48.892;15.312;2023-07-13T06:18:18;19.40;94.90
3648;DHT22;1840;48.892;15.312;2023-07-13T06:20:46;19.50;94.70
3648;DHT22;1840;48.892;15.312;2023-07-13T06:23:14;19.50;94.80
3648;DHT22;1840;48.892;15.312;2023-07-13T06:25:43;19.40;94.70
3648;DHT22;1840;48.892;15.312;2023-07-13T06:28:11;19.40;94.90
3648;DHT22;1840;48.892;15.312;2023-07-13T06:30:39;19.40;94.80
3648;DHT22;1840;48.892;15.312;2023-07-13T06:33:08;19.40;94.80
3648;DHT22;1840;48.892;15.312;2023-07-13T06:35:36;19.50;94.80
3648;DHT22;1840;48.892;15.312;2023-07-13T06:38:04;19.50;94.90
3648;DHT22;1840;48.892;15.312;2023-07-13T06:40:32;19.50;94.80
3648;DHT22;1840;48.892;15.312;2023-07-13T06:43:00;19.50;94.70
3648;DHT22;1840;48.892;15.312;2023-07-13T06:45:28;19.60;94.60
3648;DHT22;1840;48.892;15.312;2023-07-13T06:47:57;19.60;94.60
3648;DHT22;1840;48.892;15.312;2023-07-13T06:50:26;19.60;94.50
3648;DHT22;1840;48.892;15.312;2023-07-13T06:52:54;19.50;94.80
3648;DHT22;1840;48.892;15.312;2023-07-13T06:55:22;19.50;95.00
3648;DHT22;1840;48.892;15.312;2023-07-13T06:57:50;19.60;94.90
3648;DHT22;1840;48.892;15.312;2023-07-13T07:00:19;19.60;94.90
3648;DHT22;1840;48.892;15.312;2023-07-13T07:02:47;19.70;94.70
3648;DHT22;1840;48.892;15.312;2023-07-13T07:05:15;19.60;94.40
3648;DHT22;1840;48.892;15.312;2023-07-13T07:07:44;19.40;95.00
3648;DHT22;1840;48.892;15.312;2023-07-13T07:10:12;19.50;94.80
3648;DHT22;1840;48.892;15.312;2023-07-13T07:12:40;19.60;94.60
3648;DHT22;1840;48.892;15.312;2023-07-13T07:15:09;19.60;94.90
3648;DHT22;1840;48.892;15.312;2023-07-13T07:17:37;19.80;94.80
3648;DHT22;1840;48.892;15.312;2023-07-13T07:20:06;19.80;94.80
3648;DHT22;1840;48.892;15.312;2023-07-13T07:22:34;19.80;94.30
3648;DHT22;1840;48.892;15.312;2023-07-13T07:25:04;19.80;94.90
3648;DHT22;1840;48.892;15.312;2023-07-13T07:27:33;19.80;94.40
3648;DHT22;1840;48.892;15.312;2023-07-13T07:30:05;19.90;94.60
3648;DHT22;1840;48.892;15.312;2023-07-13T07:32:36;20.00;94.30
3648;DHT22;1840;48.892;15.312;2023-07-13T07:35:07;20.10;94.30
3648;DHT22;1840;48.892;15.312;2023-07-13T07:37:36;20.20;94.60
3648;DHT22;1840;48.892;15.312;2023-07-13T07:40:09;20.30;94.20
3648;DHT22;1840;48.892;15.312;2023-07-13T07:42:40;20.30;94.00
3648;DHT22;1840;48.892;15.312;2023-07-13T07:45:08;20.40;94.00
3648;DHT22;1840;48.892;15.312;2023-07-13T07:47:38;20.40;93.80
3648;DHT22;1840;48.892;15.312;2023-07-13T07:50:07;20.50;93.90
3648;DHT22;1840;48.892;15.312;2023-07-13T07:52:35;20.40;93.80
3648;DHT22;1840;48.892;15.312;2023-07-13T07:55:05;20.50;93.60
3648;DHT22;1840;48.892;15.312;2023-07-13T07:57:38;20.40;93.90
3648;DHT22;1840;48.892;15.312;2023-07-13T08:00:10;20.50;93.70
3648;DHT22;1840;48.892;15.312;2023-07-13T08:02:41;20.60;92.90
3648;DHT22;1840;48.892;15.312;2023-07-13T08:05:12;20.70;92.60
3648;DHT22;1840;48.892;15.312;2023-07-13T08:07:43;20.70;92.30
3648;DHT22;1840;48.892;15.312;2023-07-13T08:10:11;20.70;92.80
3648;DHT22;1840;48.892;15.312;2023-07-13T08:12:41;20.70;92.50
3648;DHT22;1840;48.892;15.312;2023-07-13T08:15:29;20.60;91.00
3648;DHT22;1840;48.892;15.312;2023-07-13T08:17:57;20.30;91.60
3648;DHT22;1840;48.892;15.312;2023-07-13T08:20:25;20.30;91.60
3648;DHT22;1840;48.892;15.312;2023-07-13T08:22:53;20.30;92.10
3648;DHT22;1840;48.892;15.312;2023-07-13T08:25:21;20.50;91.20
3648;DHT22;1840;48.892;15.312;2023-07-13T08:27:51;20.60;91.40
3648;DHT22;1840;48.892;15.312;2023-07-13T08:30:19;20.70;91.60
3648;DHT22;1840;48.892;15.312;2023-07-13T08:32:47;20.80;91.20
3648;DHT22;1840;48.892;15.312;2023-07-13T08:35:16;20.80;90.50
3648;DHT22;1840;48.892;15.312;2023-07-13T08:37:44;20.80;90.50
3648;DHT22;1840;48.892;15.312;2023-07-13T08:40:12;20.80;90.80
3648;DHT22;1840;48.892;15.312;2023-07-13T08:42:44;21.00;90.20
3648;DHT22;1840;48.892;15.312;2023-07-13T08:45:20;21.10;90.00
3648;DHT22;1840;48.892;15.312;2023-07-13T08:47:53;21.10;88.30
3648;DHT22;1840;48.892;15.312;2023-07-13T08:50:27;21.20;87.10
3648;DHT22;1840;48.892;15.312;2023-07-13T08:52:57;21.30;87.90
3648;DHT22;1840;48.892;15.312;2023-07-13T08:55:29;21.30;85.00
3648;DHT22;1840;48.892;15.312;2023-07-13T08:58:03;21.30;82.70
3648;DHT22;1840;48.892;15.312;2023-07-13T09:00:41;21.20;84.80
3648;DHT22;1840;48.892;15.312;2023-07-13T09:03:18;21.30;84.50
3648;DHT22;1840;48.892;15.312;2023-07-13T09:05:52;21.30;84.30
3648;DHT22;1840;48.892;15.312;2023-07-13T09:08:44;21.20;82.90
3648;DHT22;1840;48.892;15.312;2023-07-13T09:11:23;21.10;84.00
3648;DHT22;1840;48.892;15.312;2023-07-13T09:14:03;21.20;85.30
3648;DHT22;1840;48.892;15.312;2023-07-13T09:16:36;21.30;83.90
3648;DHT22;1840;48.892;15.312;2023-07-13T09:19:07;21.30;82.90
3648;DHT22;1840;48.892;15.312;2023-07-13T09:21:41;21.60;81.80
3648;DHT22;1840;48.892;15.312;2023-07-13T09:24:28;21.60;82.20
3648;DHT22;1840;48.892;15.312;2023-07-13T09:26:57;21.90;83.60
3648;DHT22;1840;48.892;15.312;2023-07-13T09:29:29;22.00;81.20
3648;DHT22;1840;48.892;15.312;2023-07-13T09:32:03;22.00;78.00
3648;DHT22;1840;48.892;15.312;2023-07-13T09:34:32;22.00;79.60
3648;DHT22;1840;48.892;15.312;2023-07-13T09:37:01;22.20;77.80
3648;DHT22;1840;48.892;15.312;2023-07-13T09:39:31;22.40;76.90
3648;DHT22;1840;48.892;15.312;2023-07-13T09:42:07;22.60;76.00
3648;DHT22;1840;48.892;15.312;2023-07-13T09:44:52;22.60;76.90
3648;DHT22;1840;48.892;15.312;2023-07-13T09:47:23;22.50;75.50
3648;DHT22;1840;48.892;15.312;2023-07-13T09:49:55;22.20;76.80
3648;DHT22;1840;48.892;15.312;2023-07-13T09:52:40;22.30;75.90
3648;DHT22;1840;48.892;15.312;2023-07-13T09:55:24;22.40;75.80
3648;DHT22;1840;48.892;15.312;2023-07-13T09:57:53;22.20;76.30
3648;DHT22;1840;48.892;15.312;2023-07-13T10:00:23;22.20;76.20
3648;DHT22;1840;48.892;15.312;2023-07-13T10:03:03;22.30;76.60
3648;DHT22;1840;48.892;15.312;2023-07-13T10:05:39;22.40;76.40
3648;DHT22;1840;48.892;15.312;2023-07-13T10:08:20;22.50;75.40
3648;DHT22;1840;48.892;15.312;2023-07-13T10:10:54;22.60;75.40
3648;DHT22;1840;48.892;15.312;2023-07-13T10:13:31;22.40;74.40
3648;DHT22;1840;48.892;15.312;2023-07-13T10:16:01;22.30;74.80
3648;DHT22;1840;48.892;15.312;2023-07-13T10:18:39;22.20;73.10
3648;DHT22;1840;48.892;15.312;2023-07-13T10:21:15;22.20;75.60
3648;DHT22;1840;48.892;15.312;2023-07-13T10:23:50;22.50;74.10
3648;DHT22;1840;48.892;15.312;2023-07-13T10:26:22;22.70;75.30
3648;DHT22;1840;48.892;15.312;2023-07-13T10:28:56;22.80;73.50
3648;DHT22;1840;48.892;15.312;2023-07-13T10:31:25;23.10;74.00
3648;DHT22;1840;48.892;15.312;2023-07-13T10:33:55;23.30;74.20
3648;DHT22;1840;48.892;15.312;2023-07-13T10:36:32;23.40;73.80
3648;DHT22;1840;48.892;15.312;2023-07-13T10:39:02;23.40;71.10
3648;DHT22;1840;48.892;15.312;2023-07-13T10:41:35;23.20;67.70
3648;DHT22;1840;48.892;15.312;2023-07-13T10:44:07;23.10;67.30
3648;DHT22;1840;48.892;15.312;2023-07-13T10:46:39;23.10;67.50
3648;DHT22;1840;48.892;15.312;2023-07-13T10:49:11;23.20;68.20
3648;DHT22;1840;48.892;15.312;2023-07-13T10:51:40;23.30;67.40
3648;DHT22;1840;48.892;15.312;2023-07-13T10:54:15;23.20;66.90
3648;DHT22;1840;48.892;15.312;2023-07-13T10:56:48;23.20;69.10
3648;DHT22;1840;48.892;15.312;2023-07-13T10:59:20;23.40;66.30
3648;DHT22;1840;48.892;15.312;2023-07-13T11:01:58;23.60;67.80
3648;DHT22;1840;48.892;15.312;2023-07-13T11:04:40;23.70;67.10
3648;DHT22;1840;48.892;15.312;2023-07-13T11:07:16;23.80;66.10
3648;DHT22;1840;48.892;15.312;2023-07-13T11:09:50;23.80;65.80
3648;DHT22;1840;48.892;15.312;2023-07-13T11:15:39;23.40;65.00
3648;DHT22;1840;48.892;15.312;2023-07-13T11:18:20;23.40;64.40
3648;DHT22;1840;48.892;15.312;2023-07-13T11:20:50;23.30;65.60
3648;DHT22;1840;48.892;15.312;2023-07-13T11:23:28;23.40;62.90
3648;DHT22;1840;48.892;15.312;2023-07-13T11:25:57;23.60;64.50
3648;DHT22;1840;48.892;15.312;2023-07-13T11:28:29;23.90;63.20
3648;DHT22;1840;48.892;15.312;2023-07-13T11:31:03;24.20;64.50
3648;DHT22;1840;48.892;15.312;2023-07-13T11:33:51;24.30;62.60
3648;DHT22;1840;48.892;15.312;2023-07-13T11:36:23;24.00;61.90
3648;DHT22;1840;48.892;15.312;2023-07-13T11:39:00;23.50;63.00
3648;DHT22;1840;48.892;15.312;2023-07-13T11:41:31;23.20;64.30
3648;DHT22;1840;48.892;15.312;2023-07-13T11:44:11;23.40;64.00
3648;DHT22;1840;48.892;15.312;2023-07-13T11:46:45;23.40;62.30
3648;DHT22;1840;48.892;15.312;2023-07-13T11:49:17;23.50;61.60
3648;DHT22;1840;48.892;15.312;2023-07-13T11:51:48;23.60;63.00
3648;DHT22;1840;48.892;15.312;2023-07-13T11:54:25;23.90;64.00
3648;DHT22;1840;48.892;15.312;2023-07-13T11:56:56;23.80;60.70
3648;DHT22;1840;48.892;15.312;2023-07-13T11:59:29;23.70;61.00
3648;DHT22;1840;48.892;15.312;2023-07-13T12:01:58;23.50;60.50
3648;DHT22;1840;48.892;15.312;2023-07-13T12:04:31;23.50;61.90
3648;DHT22;1840;48.892;15.312;2023-07-13T12:07:06;23.70;63.00
3648;DHT22;1840;48.892;15.312;2023-07-13T12:09:36;23.90;61.70
3648;DHT22;1840;48.892;15.312;2023-07-13T12:12:10;24.00;60.80
3648;DHT22;1840;48.892;15.312;2023-07-13T12:14:39;23.90;61.50
3648;DHT22;1840;48.892;15.312;2023-07-13T12:17:15;24.10;61.90
3648;DHT22;1840;48.892;15.312;2023-07-13T12:19:44;24.30;59.40
3648;DHT22;1840;48.892;15.312;2023-07-13T12:22:15;24.40;61.30
3648;DHT22;1840;48.892;15.312;2023-07-13T12:24:44;24.30;60.00
3648;DHT22;1840;48.892;15.312;2023-07-13T12:27:20;24.30;61.20
3648;DHT22;1840;48.892;15.312;2023-07-13T12:29:50;24.10;59.90
3648;DHT22;1840;48.892;15.312;2023-07-13T12:32:20;23.90;60.20
3648;DHT22;1840;48.892;15.312;2023-07-13T12:34:53;23.90;60.40
3648;DHT22;1840;48.892;15.312;2023-07-13T12:37:24;24.00;62.30
3648;DHT22;1840;48.892;15.312;2023-07-13T12:39:52;24.20;60.30
3648;DHT22;1840;48.892;15.312;2023-07-13T12:42:22;24.30;62.90
3648;DHT22;1840;48.892;15.312;2023-07-13T12:44:56;24.50;59.10
3648;DHT22;1840;48.892;15.312;2023-07-13T12:47:25;24.40;59.00
3648;DHT22;1840;48.892;15.312;2023-07-13T12:49:55;24.50;59.00
3648;DHT22;1840;48.892;15.312;2023-07-13T12:52:31;24.10;59.30
3648;DHT22;1840;48.892;15.312;2023-07-13T12:55:04;24.00;58.40
3648;DHT22;1840;48.892;15.312;2023-07-13T12:57:39;24.20;59.60
3648;DHT22;1840;48.892;15.312;2023-07-13T13:00:25;24.30;59.30
3648;DHT22;1840;48.892;15.312;2023-07-13T13:02:56;23.90;58.60
3648;DHT22;1840;48.892;15.312;2023-07-13T13:05:29;23.80;58.40
3648;DHT22;1840;48.892;15.312;2023-07-13T13:07:59;23.60;58.40
3648;DHT22;1840;48.892;15.312;2023-07-13T13:10:28;23.60;59.10
3648;DHT22;1840;48.892;15.312;2023-07-13T13:12:56;23.60;59.20
3648;DHT22;1840;48.892;15.312;2023-07-13T13:15:24;23.50;59.10
3648;DHT22;1840;48.892;15.312;2023-07-13T13:17:52;23.60;60.30
3648;DHT22;1840;48.892;15.312;2023-07-13T13:20:21;24.10;60.40
3648;DHT22;1840;48.892;15.312;2023-07-13T13:22:49;24.20;59.60
3648;DHT22;1840;48.892;15.312;2023-07-13T13:25:19;24.50;60.00
3648;DHT22;1840;48.892;15.312;2023-07-13T13:27:49;24.60;57.80
3648;DHT22;1840;48.892;15.312;2023-07-13T13:30:18;24.50;56.40
3648;DHT22;1840;48.892;15.312;2023-07-13T13:32:47;24.30;56.70
3648;DHT22;1840;48.892;15.312;2023-07-13T13:35:18;24.30;56.70
3648;DHT22;1840;48.892;15.312;2023-07-13T13:37:46;24.10;56.90
3648;DHT22;1840;48.892;15.312;2023-07-13T13:40:20;24.10;57.10
3648;DHT22;1840;48.892;15.312;2023-07-13T13:42:50;24.20;57.70
3648;DHT22;1840;48.892;15.312;2023-07-13T13:45:20;24.00;58.10
3648;DHT22;1840;48.892;15.312;2023-07-13T13:47:48;24.00;59.20
3648;DHT22;1840;48.892;15.312;2023-07-13T13:50:18;24.30;57.90
3648;DHT22;1840;48.892;15.312;2023-07-13T13:52:49;24.30;57.40
3648;DHT22;1840;48.892;15.312;2023-07-13T13:55:21;24.40;58.50
3648;DHT22;1840;48.892;15.312;2023-07-13T13:57:50;24.40;58.50
3648;DHT22;1840;48.892;15.312;2023-07-13T14:00:20;24.20;59.90
3648;DHT22;1840;48.892;15.312;2023-07-13T14:02:49;24.20;60.40
3648;DHT22;1840;48.892;15.312;2023-07-13T14:05:22;24.40;59.40
3648;DHT22;1840;48.892;15.312;2023-07-13T14:07:52;24.40;58.60
3648;DHT22;1840;48.892;15.312;2023-07-13T14:10:22;24.00;59.60
3648;DHT22;1840;48.892;15.312;2023-07-13T14:12:52;24.10;59.40
3648;DHT22;1840;48.892;15.312;2023-07-13T14:15:22;24.10;58.20
3648;DHT22;1840;48.892;15.312;2023-07-13T14:17:51;24.10;59.00
3648;DHT22;1840;48.892;15.312;2023-07-13T14:20:21;24.10;59.90
3648;DHT22;1840;48.892;15.312;2023-07-13T14:22:51;24.60;59.50
3648;DHT22;1840;48.892;15.312;2023-07-13T14:25:21;24.80;59.40
3648;DHT22;1840;48.892;15.312;2023-07-13T14:27:53;24.80;59.20
3648;DHT22;1840;48.892;15.312;2023-07-13T14:30:24;25.00;60.30
3648;DHT22;1840;48.892;15.312;2023-07-13T14:32:52;25.00;58.50
3648;DHT22;1840;48.892;15.312;2023-07-13T14:35:21;25.10;59.70
3648;DHT22;1840;48.892;15.312;2023-07-13T14:37:50;24.90;59.30
3648;DHT22;1840;48.892;15.312;2023-07-13T14:40:24;24.80;59.10
3648;DHT22;1840;48.892;15.312;2023-07-13T14:42:54;24.70;59.60
3648;DHT22;1840;48.892;15.312;2023-07-13T14:45:22;24.50;60.00
3648;DHT22;1840;48.892;15.312;2023-07-13T14:47:50;24.30;60.70
3648;DHT22;1840;48.892;15.312;2023-07-13T14:50:20;24.30;60.90
3648;DHT22;1840;48.892;15.312;2023-07-13T14:52:48;24.10;60.30
3648;DHT22;1840;48.892;15.312;2023-07-13T14:55:17;24.00;60.10
3648;DHT22;1840;48.892;15.312;2023-07-13T14:57:48;23.90;61.10
3648;DHT22;1840;48.892;15.312;2023-07-13T15:00:19;23.90;60.30
3648;DHT22;1840;48.892;15.312;2023-07-13T15:02:50;23.90;60.40
3648;DHT22;1840;48.892;15.312;2023-07-13T15:05:20;23.80;60.00
3648;DHT22;1840;48.892;15.312;2023-07-13T15:07:50;23.80;61.20
3648;DHT22;1840;48.892;15.312;2023-07-13T15:10:21;23.80;60.70
3648;DHT22;1840;48.892;15.312;2023-07-13T15:12:51;23.70;61.60
3648;DHT22;1840;48.892;15.312;2023-07-13T15:15:20;23.70;62.10
3648;DHT22;1840;48.892;15.312;2023-07-13T15:17:48;23.80;63.00
3648;DHT22;1840;48.892;15.312;2023-07-13T15:20:19;23.80;62.20
3648;DHT22;1840;48.892;15.312;2023-07-13T15:22:49;24.00;61.00
3648;DHT22;1840;48.892;15.312;2023-07-13T15:25:19;24.00;62.40
3648;DHT22;1840;48.892;15.312;2023-07-13T15:27:48;23.80;62.10
3648;DHT22;1840;48.892;15.312;2023-07-13T15:30:18;23.90;63.30
3648;DHT22;1840;48.892;15.312;2023-07-13T15:32:47;24.00;64.00
3648;DHT22;1840;48.892;15.312;2023-07-13T15:35:17;24.10;63.50
3648;DHT22;1840;48.892;15.312;2023-07-13T15:37:46;24.30;64.20
3648;DHT22;1840;48.892;15.312;2023-07-13T15:40:14;24.30;64.00
3648;DHT22;1840;48.892;15.312;2023-07-13T15:42:44;24.10;64.70
3648;DHT22;1840;48.892;15.312;2023-07-13T15:45:20;24.10;65.20
3648;DHT22;1840;48.892;15.312;2023-07-13T15:47:49;24.30;65.40
3648;DHT22;1840;48.892;15.312;2023-07-13T15:50:19;24.30;66.90
3648;DHT22;1840;48.892;15.312;2023-07-13T15:52:49;24.30;66.40
3648;DHT22;1840;48.892;15.312;2023-07-13T15:55:18;24.20;66.60
3648;DHT22;1840;48.892;15.312;2023-07-13T15:57:48;24.00;68.40
3648;DHT22;1840;48.892;15.312;2023-07-13T16:00:21;24.00;68.40
3648;DHT22;1840;48.892;15.312;2023-07-13T16:02:50;23.70;69.50
3648;DHT22;1840;48.892;15.312;2023-07-13T16:05:20;23.70;70.60
3648;DHT22;1840;48.892;15.312;2023-07-13T16:07:50;23.70;71.20